createdAt,value
2017-11-07T00:00:44.576Z,21.1
2017-11-07T00:01:46.051Z,21.1
2017-11-07T00:02:48.214Z,21.1
2017-11-07T00:03:49.668Z,21.1
2017-11-07T00:04:51.500Z,21.1
2017-11-07T00:05:53.664Z,21
2017-11-07T00:06:55.824Z,21
2017-11-07T00:07:57.622Z,21.1
2017-11-07T00:08:59.417Z,21
2017-11-07T00:10:01.220Z,21.2
2017-11-07T00:11:02.669Z,21.2
2017-11-07T00:12:04.488Z,21.1
2017-11-07T00:13:05.598Z,21.1
2017-11-07T00:14:07.124Z,21
2017-11-07T00:15:08.949Z,21.1
2017-11-07T00:16:10.420Z,21.1
2017-11-07T00:17:12.582Z,21.1
2017-11-07T00:18:14.399Z,21.1
2017-11-07T00:19:16.275Z,21.1
2017-11-07T00:20:18.445Z,21.1
2017-11-07T00:21:20.264Z,21
2017-11-07T00:22:22.111Z,21.1
2017-11-07T00:23:23.584Z,21.2
2017-11-07T00:24:25.746Z,21.1
2017-11-07T00:25:27.912Z,21.1
2017-11-07T00:26:29.727Z,21
2017-11-07T00:27:31.555Z,21
2017-11-07T00:28:33.708Z,21
2017-11-07T00:29:35.885Z,21.1
2017-11-07T00:30:36.996Z,21
2017-11-07T00:31:39.174Z,21.1
2017-11-07T00:32:41.337Z,21.1
2017-11-07T00:33:43.170Z,21.1
2017-11-07T00:34:45.332Z,21
2017-11-07T00:35:47.200Z,21.2
2017-11-07T00:36:49.361Z,21
2017-11-07T00:37:51.184Z,21.1
2017-11-07T00:38:53.007Z,21
2017-11-07T00:39:54.817Z,21.1
2017-11-07T00:40:56.997Z,21.1
2017-11-07T00:41:58.437Z,21.1
2017-11-07T00:43:00.252Z,21
2017-11-07T00:44:02.049Z,21.1
2017-11-07T00:45:04.211Z,21.2
2017-11-07T00:46:05.663Z,21.1
2017-11-07T00:47:07.483Z,21
2017-11-07T00:48:09.645Z,21
2017-11-07T00:49:10.756Z,21.1
2017-11-07T00:50:12.921Z,21.1
2017-11-07T00:51:14.391Z,21.1
2017-11-07T00:52:16.213Z,21.1
2017-11-07T00:53:18.013Z,21
2017-11-07T00:54:19.461Z,21.2
2017-11-07T00:55:21.623Z,21.1
2017-11-07T00:56:23.787Z,21.1
2017-11-07T00:57:25.262Z,21.2
2017-11-07T00:58:26.716Z,21.2
2017-11-07T00:59:28.537Z,21.1
2017-11-07T01:00:30.380Z,21.1
2017-11-07T01:01:31.856Z,21.1
2017-11-07T01:02:33.677Z,21
2017-11-07T01:03:35.835Z,21.1
2017-11-07T01:04:37.313Z,21.2
2017-11-07T01:05:39.476Z,21.1
2017-11-07T01:06:41.637Z,21.1
2017-11-07T01:07:43.436Z,21.1
2017-11-07T01:08:44.889Z,21.1
2017-11-07T01:09:46.339Z,21
2017-11-07T01:10:48.161Z,21.1
2017-11-07T01:11:49.612Z,21.2
2017-11-07T01:12:51.775Z,21.1
2017-11-07T01:13:53.594Z,21.1
2017-11-07T01:14:54.700Z,21.1
2017-11-07T01:15:56.536Z,21.1
2017-11-07T01:16:58.358Z,21.1
2017-11-07T01:17:59.807Z,21.2
2017-11-07T01:19:01.267Z,21.1
2017-11-07T01:20:03.090Z,21
2017-11-07T01:21:04.902Z,21.2
2017-11-07T01:22:07.095Z,21.1
2017-11-07T01:23:09.258Z,21.1
2017-11-07T01:24:10.716Z,21
2017-11-07T01:25:12.536Z,21.2
2017-11-07T01:26:14.698Z,21
2017-11-07T01:27:16.520Z,21.2
2017-11-07T01:28:18.334Z,21.1
2017-11-07T01:29:20.499Z,21.1
2017-11-07T01:30:22.700Z,21.2
2017-11-07T01:31:24.518Z,21.2
2017-11-07T01:32:25.626Z,21.1
2017-11-07T01:33:27.101Z,21.1
2017-11-07T01:34:28.555Z,21
2017-11-07T01:35:30.372Z,21.1
2017-11-07T01:36:32.540Z,21.2
2017-11-07T01:37:33.993Z,21.1
2017-11-07T01:38:35.183Z,21.2
2017-11-07T01:39:36.297Z,21.1
2017-11-07T01:40:38.116Z,21.2
2017-11-07T01:41:39.590Z,21.1
2017-11-07T01:42:41.385Z,21.2
2017-11-07T01:43:43.547Z,21.1
2017-11-07T01:44:44.999Z,21.1
2017-11-07T01:45:46.794Z,21.2
2017-11-07T01:46:48.267Z,21.1
2017-11-07T01:47:50.086Z,21.2
2017-11-07T01:48:51.562Z,21.1
2017-11-07T01:49:53.358Z,21.1
2017-11-07T01:50:55.542Z,21.1
2017-11-07T01:51:56.995Z,21.2
2017-11-07T01:52:59.154Z,21.2
2017-11-07T01:54:01.330Z,21.2
2017-11-07T01:55:02.788Z,21.2
2017-11-07T01:56:04.260Z,21.1
2017-11-07T01:57:05.711Z,21.1
2017-11-07T01:58:07.512Z,21.1
2017-11-07T01:59:09.670Z,21.1
2017-11-07T02:00:11.496Z,21.2
2017-11-07T02:01:13.647Z,21.2
2017-11-07T02:02:15.120Z,21.2
2017-11-07T02:03:16.223Z,21.2
2017-11-07T02:04:18.387Z,21.2
2017-11-07T02:05:20.546Z,21.1
2017-11-07T02:06:22.707Z,21.1
2017-11-07T02:07:24.501Z,21.1
2017-11-07T02:08:25.974Z,21.2
2017-11-07T02:09:27.770Z,21.2
2017-11-07T02:10:29.585Z,21.1
2017-11-07T02:11:31.059Z,21.1
2017-11-07T02:12:32.536Z,21.2
2017-11-07T02:13:34.357Z,21.1
2017-11-07T02:14:35.814Z,21.1
2017-11-07T02:15:37.978Z,21.1
2017-11-07T02:16:39.773Z,21.1
2017-11-07T02:17:41.588Z,21.1
2017-11-07T02:18:43.406Z,21
2017-11-07T02:19:45.224Z,21.1
2017-11-07T02:20:47.041Z,21.2
2017-11-07T02:21:48.857Z,21.1
2017-11-07T02:22:50.328Z,21.1
2017-11-07T02:23:52.491Z,21
2017-11-07T02:24:54.309Z,21.2
2017-11-07T02:25:56.104Z,21.2
2017-11-07T02:26:57.555Z,21.1
2017-11-07T02:27:59.008Z,21.1
2017-11-07T02:29:00.862Z,21.2
2017-11-07T02:30:02.676Z,21.2
2017-11-07T02:31:04.844Z,21.1
2017-11-07T02:32:06.643Z,21.1
2017-11-07T02:33:08.125Z,21.2
2017-11-07T02:34:10.288Z,21.1
2017-11-07T02:35:11.787Z,21.2
2017-11-07T02:36:13.946Z,21.2
2017-11-07T02:37:16.106Z,21.1
2017-11-07T02:38:18.269Z,21.1
2017-11-07T02:39:19.721Z,21.1
2017-11-07T02:40:21.885Z,21.1
2017-11-07T02:41:23.702Z,21.1
2017-11-07T02:42:25.571Z,21.1
2017-11-07T02:43:27.737Z,21.1
2017-11-07T02:44:29.897Z,21.1
2017-11-07T02:45:31.715Z,21.1
2017-11-07T02:46:33.529Z,21.1
2017-11-07T02:47:35.691Z,21.1
2017-11-07T02:48:37.510Z,21.2
2017-11-07T02:49:38.618Z,21.1
2017-11-07T02:50:40.434Z,21.2
2017-11-07T02:51:42.248Z,21.1
2017-11-07T02:52:44.407Z,21.1
2017-11-07T02:53:45.514Z,21.1
2017-11-07T02:54:47.340Z,21.2
2017-11-07T02:55:49.134Z,21.1
2017-11-07T02:56:50.950Z,21.1
2017-11-07T02:57:52.771Z,21.1
2017-11-07T02:58:54.583Z,21.1
2017-11-07T02:59:56.033Z,21.1
2017-11-07T03:00:57.847Z,21.1
2017-11-07T03:02:00.015Z,21.1
2017-11-07T03:03:01.802Z,21.1
2017-11-07T03:04:03.601Z,21.1
2017-11-07T03:05:05.417Z,21.1
2017-11-07T03:06:07.218Z,21.2
2017-11-07T03:07:09.005Z,21.2
2017-11-07T03:08:10.456Z,21
2017-11-07T03:09:12.272Z,21.1
2017-11-07T03:10:14.441Z,21.1
2017-11-07T03:11:16.257Z,21.1
2017-11-07T03:12:17.733Z,21.1
2017-11-07T03:13:19.551Z,21.1
2017-11-07T03:14:21.375Z,21.1
2017-11-07T03:15:22.477Z,21.2
2017-11-07T03:16:24.637Z,21.1
2017-11-07T03:17:26.797Z,21.2
2017-11-07T03:18:28.960Z,21.1
2017-11-07T03:19:30.069Z,21.1
2017-11-07T03:20:31.171Z,21.1
2017-11-07T03:21:33.333Z,21.1
2017-11-07T03:22:34.798Z,21.1
2017-11-07T03:23:36.623Z,21.1
2017-11-07T03:24:38.439Z,21.1
2017-11-07T03:25:40.237Z,21.1
2017-11-07T03:26:42.059Z,21.2
2017-11-07T03:27:43.848Z,21.1
2017-11-07T03:28:45.672Z,21.1
2017-11-07T03:29:47.116Z,21.1
2017-11-07T03:30:48.932Z,21.1
2017-11-07T03:31:50.747Z,21.1
2017-11-07T03:32:52.199Z,21.1
2017-11-07T03:33:54.411Z,21.1
2017-11-07T03:34:56.571Z,21.1
2017-11-07T03:35:58.021Z,21.1
2017-11-07T03:37:00.184Z,21.1
2017-11-07T03:38:02.002Z,21.1
2017-11-07T03:39:03.109Z,21.1
2017-11-07T03:40:04.928Z,21.1
2017-11-07T03:41:07.092Z,21.1
2017-11-07T03:42:08.910Z,21.1
2017-11-07T03:43:10.406Z,21.2
2017-11-07T03:44:12.568Z,21.1
2017-11-07T03:45:14.023Z,21.1
2017-11-07T03:46:15.473Z,21.1
2017-11-07T03:47:17.292Z,21.1
2017-11-07T03:48:19.112Z,21.1
2017-11-07T03:49:20.929Z,21.1
2017-11-07T03:50:23.096Z,21
2017-11-07T03:51:25.250Z,21.1
2017-11-07T03:52:26.699Z,21.1
2017-11-07T03:53:28.860Z,21.1
2017-11-07T03:54:30.657Z,21.1
2017-11-07T03:55:32.816Z,21.1
2017-11-07T03:56:34.633Z,21.1
2017-11-07T03:57:36.138Z,21.1
2017-11-07T03:58:37.610Z,21.1
2017-11-07T03:59:39.770Z,21.1
2017-11-07T04:00:41.572Z,21.1
2017-11-07T04:01:43.379Z,21.1
2017-11-07T04:02:45.540Z,21.1
2017-11-07T04:03:46.668Z,21.1
2017-11-07T04:04:48.476Z,21.1
2017-11-07T04:05:50.629Z,21.1
2017-11-07T04:06:52.098Z,21.1
2017-11-07T04:07:53.894Z,21.1
2017-11-07T04:08:55.712Z,21.1
2017-11-07T04:09:57.507Z,21.1
2017-11-07T04:10:58.635Z,21.1
2017-11-07T04:12:00.094Z,21.1
2017-11-07T04:13:01.909Z,21.1
2017-11-07T04:14:03.384Z,21.1
2017-11-07T04:15:04.863Z,21.1
2017-11-07T04:16:06.308Z,21.1
2017-11-07T04:17:07.780Z,21.1
2017-11-07T04:18:09.233Z,21.1
2017-11-07T04:19:11.050Z,21.1
2017-11-07T04:20:13.210Z,21.1
2017-11-07T04:21:15.029Z,21.1
2017-11-07T04:22:17.190Z,21.1
2017-11-07T04:23:19.007Z,21.1
2017-11-07T04:24:20.874Z,21.1
2017-11-07T04:25:23.040Z,21.1
2017-11-07T04:26:24.529Z,21.1
2017-11-07T04:27:26.332Z,21.1
2017-11-07T04:28:28.202Z,21.1
2017-11-07T04:29:30.364Z,21.1
2017-11-07T04:30:31.837Z,21.1
2017-11-07T04:31:33.653Z,21
2017-11-07T04:32:35.486Z,21.1
2017-11-07T04:33:37.299Z,21.2
2017-11-07T04:34:38.773Z,21.1
2017-11-07T04:35:39.880Z,21.1
2017-11-07T04:36:42.042Z,21.1
2017-11-07T04:37:43.837Z,21.1
2017-11-07T04:38:46.006Z,21.1
2017-11-07T04:39:47.802Z,21.1
2017-11-07T04:40:49.963Z,21.1
2017-11-07T04:41:52.126Z,21.1
2017-11-07T04:42:54.285Z,21.1
2017-11-07T04:43:56.102Z,21.1
2017-11-07T04:44:57.912Z,21.1
2017-11-07T04:45:59.704Z,21.1
2017-11-07T04:47:01.863Z,21.1
2017-11-07T04:48:03.659Z,21.1
2017-11-07T04:49:05.136Z,21.1
2017-11-07T04:50:07.300Z,21.1
2017-11-07T04:51:09.118Z,21.1
2017-11-07T04:52:10.565Z,21
2017-11-07T04:53:12.018Z,21.1
2017-11-07T04:54:13.812Z,21.1
2017-11-07T04:55:15.628Z,21.1
2017-11-07T04:56:17.448Z,21
2017-11-07T04:57:19.264Z,21.1
2017-11-07T04:58:20.714Z,21.1
2017-11-07T04:59:22.532Z,21.1
2017-11-07T05:00:24.693Z,21.1
2017-11-07T05:01:26.508Z,21
2017-11-07T05:02:27.961Z,21.2
2017-11-07T05:03:29.766Z,21.1
2017-11-07T05:04:31.581Z,21.1
2017-11-07T05:05:33.105Z,21.1
2017-11-07T05:06:35.273Z,21.1
2017-11-07T05:07:37.443Z,21
2017-11-07T05:08:39.616Z,21.1
2017-11-07T05:09:41.441Z,21.1
2017-11-07T05:10:43.296Z,21
2017-11-07T05:11:45.458Z,21.1
2017-11-07T05:12:46.940Z,21.1
2017-11-07T05:13:49.094Z,21.1
2017-11-07T05:14:51.255Z,21.1
2017-11-07T05:15:53.058Z,21.1
2017-11-07T05:16:54.531Z,21.1
2017-11-07T05:17:56.692Z,21.1
2017-11-07T05:18:58.173Z,21.1
2017-11-07T05:19:59.990Z,21.1
2017-11-07T05:21:02.154Z,21.1
2017-11-07T05:22:03.611Z,21.1
2017-11-07T05:23:05.428Z,21.1
2017-11-07T05:24:07.609Z,21.1
2017-11-07T05:25:09.046Z,21.2
2017-11-07T05:26:10.842Z,21.2
2017-11-07T05:27:13.003Z,21
2017-11-07T05:28:14.819Z,21.2
2017-11-07T05:29:16.636Z,21.1
2017-11-07T05:30:18.797Z,21.1
2017-11-07T05:31:19.906Z,21.2
2017-11-07T05:32:21.730Z,21.1
2017-11-07T05:33:23.539Z,21.1
2017-11-07T05:34:25.700Z,21.2
2017-11-07T05:35:27.517Z,21.2
2017-11-07T05:36:29.677Z,21.1
2017-11-07T05:37:31.494Z,21.2
2017-11-07T05:38:33.291Z,21.1
2017-11-07T05:39:35.451Z,21.1
2017-11-07T05:40:37.657Z,21.2
2017-11-07T05:41:39.818Z,21.1
2017-11-07T05:42:41.290Z,21.2
2017-11-07T05:43:42.763Z,21.2
2017-11-07T05:44:44.926Z,21.1
2017-11-07T05:45:46.749Z,21.1
2017-11-07T05:46:48.582Z,21.2
2017-11-07T05:47:50.056Z,21.2
2017-11-07T05:48:51.873Z,21.3
2017-11-07T05:49:54.037Z,21.2
2017-11-07T05:50:55.492Z,21.2
2017-11-07T05:51:57.289Z,21.2
2017-11-07T05:52:59.108Z,21.3
2017-11-07T05:54:00.926Z,21.2
2017-11-07T05:55:03.092Z,21.2
2017-11-07T05:56:04.915Z,21.3
2017-11-07T05:57:06.388Z,21.3
2017-11-07T05:58:08.549Z,21.3
2017-11-07T05:59:10.711Z,21.3
2017-11-07T06:00:12.870Z,21.3
2017-11-07T06:01:14.343Z,21.3
2017-11-07T06:02:16.506Z,21.3
2017-11-07T06:03:18.299Z,21.3
2017-11-07T06:04:19.748Z,21.3
2017-11-07T06:05:21.565Z,21.3
2017-11-07T06:06:23.380Z,21.3
2017-11-07T06:07:24.833Z,21.3
2017-11-07T06:08:26.305Z,21.3
2017-11-07T06:09:28.123Z,21.3
2017-11-07T06:10:30.286Z,21.3
2017-11-07T06:11:32.444Z,21.3
2017-11-07T06:12:34.604Z,21.3
2017-11-07T06:13:36.766Z,21.3
2017-11-07T06:14:38.239Z,21.3
2017-11-07T06:15:40.402Z,21.3
2017-11-07T06:16:42.563Z,21.3
2017-11-07T06:17:44.726Z,21.3
2017-11-07T06:18:46.904Z,21.4
2017-11-07T06:19:48.355Z,21.3
2017-11-07T06:20:49.459Z,21.3
2017-11-07T06:21:51.276Z,21.3
2017-11-07T06:22:52.751Z,21.3
2017-11-07T06:23:54.913Z,21.3
2017-11-07T06:24:57.077Z,21.3
2017-11-07T06:25:58.555Z,21.3
2017-11-07T06:27:00.372Z,21.4
2017-11-07T06:28:02.540Z,21.4
2017-11-07T06:29:04.354Z,21.4
2017-11-07T06:30:06.175Z,21.3
2017-11-07T06:31:07.994Z,21.3
2017-11-07T06:32:09.834Z,21.3
2017-11-07T06:33:11.633Z,21.4
2017-11-07T06:34:13.451Z,21.3
2017-11-07T06:35:15.627Z,21.4
2017-11-07T06:36:17.411Z,21.3
2017-11-07T06:37:18.863Z,21.4
2017-11-07T06:38:21.037Z,21.3
2017-11-07T06:39:22.513Z,21.3
2017-11-07T06:40:24.329Z,21.4
2017-11-07T06:41:25.779Z,21.3
2017-11-07T06:42:27.288Z,21.4
2017-11-07T06:43:29.092Z,21.3
2017-11-07T06:44:30.918Z,21.3
2017-11-07T06:45:32.716Z,21.3
2017-11-07T06:46:34.546Z,21.4
2017-11-07T06:47:36.360Z,21.3
2017-11-07T06:48:38.522Z,21.4
2017-11-07T06:49:39.977Z,21.4
2017-11-07T06:50:41.454Z,21.4
2017-11-07T06:51:43.612Z,21.3
2017-11-07T06:52:45.414Z,21.3
2017-11-07T06:53:47.233Z,21.3
2017-11-07T06:54:49.059Z,21.3
2017-11-07T06:55:50.526Z,21.4
2017-11-07T06:56:52.704Z,21.3
2017-11-07T06:57:54.165Z,21.3
2017-11-07T06:58:55.622Z,21.4
2017-11-07T06:59:57.423Z,21.3
2017-11-07T07:00:58.878Z,21.4
2017-11-07T07:02:00.700Z,21.4
2017-11-07T07:03:02.858Z,21.4
2017-11-07T07:04:05.068Z,21.4
2017-11-07T07:05:07.233Z,21.4
2017-11-07T07:06:08.373Z,21.4
2017-11-07T07:07:09.830Z,21.4
2017-11-07T07:08:11.995Z,21.5
2017-11-07T07:09:13.817Z,21.4
2017-11-07T07:10:15.638Z,21.4
2017-11-07T07:11:16.750Z,21.4
2017-11-07T07:12:17.883Z,21.4
2017-11-07T07:13:19.698Z,21.4
2017-11-07T07:14:21.861Z,21.4
2017-11-07T07:15:23.656Z,21.4
2017-11-07T07:16:25.473Z,21.4
2017-11-07T07:17:26.931Z,21.4
2017-11-07T07:18:29.096Z,21.4
2017-11-07T07:19:30.919Z,21.4
2017-11-07T07:20:32.396Z,21.4
2017-11-07T07:21:33.854Z,21.5
2017-11-07T07:22:36.019Z,21.4
2017-11-07T07:23:37.492Z,21.4
2017-11-07T07:24:39.292Z,21.4
2017-11-07T07:25:41.457Z,21.4
2017-11-07T07:26:42.918Z,21.4
2017-11-07T07:27:44.375Z,21.4
2017-11-07T07:28:45.507Z,21.4
2017-11-07T07:29:47.672Z,21.5
2017-11-07T07:30:49.497Z,21.4
2017-11-07T07:31:50.949Z,21.4
2017-11-07T07:32:52.424Z,21.4
2017-11-07T07:33:54.588Z,21.4
2017-11-07T07:34:55.722Z,21.4
2017-11-07T07:35:57.179Z,21.5
2017-11-07T07:36:58.653Z,21.4
2017-11-07T07:38:00.823Z,21.4
2017-11-07T07:39:02.642Z,21.4
2017-11-07T07:40:04.460Z,21.4
2017-11-07T07:41:06.283Z,21.4
2017-11-07T07:42:08.083Z,21.4
2017-11-07T07:43:09.536Z,21.4
2017-11-07T07:44:11.699Z,21.4
2017-11-07T07:45:13.862Z,21.5
2017-11-07T07:46:15.683Z,21.4
2017-11-07T07:47:17.481Z,21.4
2017-11-07T07:48:19.652Z,21.5
2017-11-07T07:49:20.783Z,21.4
2017-11-07T07:50:21.898Z,21.4
2017-11-07T07:51:23.718Z,21.4
2017-11-07T07:52:25.551Z,21.4
2017-11-07T07:53:27.001Z,21.4
2017-11-07T07:54:28.822Z,21.4
2017-11-07T07:55:30.737Z,21.4
2017-11-07T07:56:32.196Z,21.4
2017-11-07T07:57:33.653Z,21.5
2017-11-07T07:58:35.470Z,21.4
2017-11-07T07:59:37.637Z,21.5
2017-11-07T08:00:39.096Z,21.5
2017-11-07T08:01:41.303Z,21.4
2017-11-07T08:02:42.786Z,21.4
2017-11-07T08:03:44.586Z,21.4
2017-11-07T08:04:46.423Z,21.4
2017-11-07T08:05:48.584Z,21.5
2017-11-07T08:06:50.039Z,21.4
2017-11-07T08:07:51.492Z,21.4
2017-11-07T08:08:53.658Z,21.4
2017-11-07T08:09:55.453Z,21.4
2017-11-07T08:10:57.250Z,21.4
2017-11-07T08:11:58.727Z,21.5
2017-11-07T08:13:00.234Z,21.4
2017-11-07T08:14:01.691Z,21.4
2017-11-07T08:15:03.491Z,21.4
2017-11-07T08:16:05.653Z,21.5
2017-11-07T08:17:07.818Z,21.5
2017-11-07T08:18:08.933Z,21.4
2017-11-07T08:19:10.751Z,21.4
2017-11-07T08:20:12.569Z,21.4
2017-11-07T08:21:14.735Z,21.5
2017-11-07T08:22:16.899Z,21.4
2017-11-07T08:23:18.015Z,21.4
2017-11-07T08:24:19.491Z,21.4
2017-11-07T08:25:21.311Z,21.4
2017-11-07T08:26:22.790Z,21.4
2017-11-07T08:27:23.920Z,21.5
2017-11-07T08:28:25.721Z,21.4
2017-11-07T08:29:27.522Z,21.5
2017-11-07T08:30:29.001Z,21.5
2017-11-07T08:31:31.168Z,21.4
2017-11-07T08:32:31.934Z,21.4
2017-11-07T08:33:33.754Z,21.5
2017-11-07T08:34:35.212Z,21.5
2017-11-07T08:35:37.017Z,21.5
2017-11-07T08:36:38.840Z,21.6
2017-11-07T08:37:41.002Z,21.4
2017-11-07T08:38:42.875Z,21.5
2017-11-07T08:39:45.041Z,21.5
2017-11-07T08:40:46.859Z,21.5
2017-11-07T08:41:48.312Z,21.5
2017-11-07T08:42:50.480Z,21.5
2017-11-07T08:43:52.276Z,21.5
2017-11-07T08:44:54.098Z,21.5
2017-11-07T08:45:55.574Z,21.4
2017-11-07T08:46:57.391Z,21.5
2017-11-07T08:47:58.864Z,21.5
2017-11-07T08:49:00.683Z,21.5
2017-11-07T08:50:02.133Z,21.6
2017-11-07T08:51:04.296Z,21.4
2017-11-07T08:52:06.098Z,21.5
2017-11-07T08:53:07.549Z,21.5
2017-11-07T08:54:09.715Z,21.5
2017-11-07T08:55:11.192Z,21.6
2017-11-07T08:56:13.009Z,21.5
2017-11-07T08:57:14.841Z,21.5
2017-11-07T08:58:16.655Z,21.4
2017-11-07T08:59:18.543Z,21.4
2017-11-07T09:00:20.743Z,21.5
2017-11-07T09:01:22.220Z,21.5
2017-11-07T09:02:24.068Z,21.5
2017-11-07T09:03:25.525Z,21.5
2017-11-07T09:04:27.380Z,21.5
2017-11-07T09:05:29.176Z,21.5
2017-11-07T09:06:30.292Z,21.5
2017-11-07T09:07:32.112Z,21.5
2017-11-07T09:08:33.935Z,21.5
2017-11-07T09:09:35.848Z,21.6
2017-11-07T09:10:37.666Z,21.5
2017-11-07T09:11:39.129Z,21.5
2017-11-07T09:12:40.590Z,21.6
2017-11-07T09:13:42.438Z,21.5
2017-11-07T09:14:43.899Z,21.5
2017-11-07T09:15:44.670Z,21.5
2017-11-07T09:16:46.494Z,21.5
2017-11-07T09:17:48.341Z,21.5
2017-11-07T09:18:50.001Z,21.5
2017-11-07T09:19:51.706Z,21.5
2017-11-07T09:20:53.184Z,21.6
2017-11-07T09:21:54.659Z,21.6
2017-11-07T09:22:56.994Z,21.6
2017-11-07T09:23:58.791Z,21.6
2017-11-07T09:25:00.651Z,21.6
2017-11-07T09:26:01.759Z,21.6
2017-11-07T09:27:03.212Z,21.6
2017-11-07T09:28:04.686Z,21.6
2017-11-07T09:29:06.502Z,21.6
2017-11-07T09:30:08.374Z,21.6
2017-11-07T09:31:10.407Z,21.6
2017-11-07T09:32:11.182Z,21.6
2017-11-07T09:33:13.344Z,21.6
2017-11-07T09:34:14.448Z,21.6
2017-11-07T09:35:16.609Z,21.5
2017-11-07T09:36:18.413Z,21.6
2017-11-07T09:37:19.881Z,21.6
2017-11-07T09:38:21.679Z,21.6
2017-11-07T09:39:23.480Z,21.6
2017-11-07T09:40:25.348Z,21.6
2017-11-07T09:41:26.821Z,21.5
2017-11-07T09:42:29.045Z,21.5
2017-11-07T09:43:31.212Z,21.6
2017-11-07T09:44:32.672Z,21.5
2017-11-07T09:45:34.488Z,21.5
2017-11-07T09:46:35.944Z,21.6
2017-11-07T09:47:37.396Z,21.6
2017-11-07T09:48:38.850Z,21.6
2017-11-07T09:49:41.012Z,21.6
2017-11-07T09:50:43.221Z,21.6
2017-11-07T09:51:45.052Z,21.6
2017-11-07T09:52:46.869Z,21.5
2017-11-07T09:53:49.030Z,21.6
2017-11-07T09:54:50.826Z,21.6
2017-11-07T09:55:52.644Z,21.6
2017-11-07T09:56:54.115Z,21.6
2017-11-07T09:57:56.287Z,21.6
2017-11-07T09:58:58.081Z,21.5
2017-11-07T09:59:59.901Z,21.5
2017-11-07T10:01:00.666Z,21.6
2017-11-07T10:02:02.838Z,21.6
2017-11-07T10:03:05.001Z,21.5
2017-11-07T10:04:07.161Z,21.5
2017-11-07T10:05:08.987Z,21.6
2017-11-07T10:06:11.156Z,21.6
2017-11-07T10:07:13.319Z,21.6
2017-11-07T10:08:15.122Z,21.6
2017-11-07T10:09:17.276Z,21.6
2017-11-07T10:10:19.439Z,21.6
2017-11-07T10:11:21.601Z,21.6
2017-11-07T10:12:23.459Z,21.6
2017-11-07T10:13:24.937Z,21.6
2017-11-07T10:14:26.752Z,21.5
2017-11-07T10:15:28.550Z,21.5
2017-11-07T10:16:29.668Z,21.5
2017-11-07T10:17:31.124Z,21.5
2017-11-07T10:18:33.281Z,21.6
2017-11-07T10:19:35.100Z,21.6
2017-11-07T10:20:36.924Z,21.5
2017-11-07T10:21:38.741Z,21.5
2017-11-07T10:22:40.909Z,21.5
2017-11-07T10:23:42.380Z,21.5
2017-11-07T10:24:43.855Z,21.6
2017-11-07T10:25:45.305Z,21.5
2017-11-07T10:26:46.856Z,21.5
2017-11-07T10:27:49.025Z,21.5
2017-11-07T10:28:50.841Z,21.5
2017-11-07T10:29:53.007Z,21.6
2017-11-07T10:30:55.166Z,21.6
2017-11-07T10:31:56.965Z,21.5
2017-11-07T10:32:58.075Z,21.6
2017-11-07T10:33:59.527Z,21.5
2017-11-07T10:35:01.689Z,21.6
2017-11-07T10:36:03.163Z,21.6
2017-11-07T10:37:05.376Z,21.6
2017-11-07T10:38:07.213Z,21.6
2017-11-07T10:39:09.016Z,21.5
2017-11-07T10:40:10.837Z,21.5
2017-11-07T10:41:12.002Z,21.6
2017-11-07T10:42:14.400Z,21.5
2017-11-07T10:43:16.603Z,21.6
2017-11-07T10:44:19.058Z,21.6
2017-11-07T10:45:20.531Z,21.6
2017-11-07T10:46:22.722Z,21.6
2017-11-07T10:47:24.889Z,21.6
2017-11-07T10:48:26.369Z,21.6
2017-11-07T10:49:28.191Z,21.6
2017-11-07T10:50:29.673Z,21.5
2017-11-07T10:51:31.836Z,21.7
2017-11-07T10:52:33.743Z,21.7
2017-11-07T10:53:35.571Z,21.6
2017-11-07T10:54:37.405Z,21.6
2017-11-07T10:55:38.925Z,21.5
2017-11-07T10:56:41.348Z,21.7
2017-11-07T10:57:42.816Z,21.6
2017-11-07T10:58:44.316Z,21.7
2017-11-07T10:59:45.794Z,21.6
2017-11-07T11:00:47.253Z,21.7
2017-11-07T11:01:49.153Z,21.7
2017-11-07T11:02:50.980Z,21.7
2017-11-07T11:03:52.788Z,21.7
2017-11-07T11:04:54.615Z,21.6
2017-11-07T11:05:56.448Z,21.7
2017-11-07T11:06:57.669Z,21.6
2017-11-07T11:07:59.474Z,21.6
2017-11-07T11:09:01.298Z,21.6
2017-11-07T11:10:03.125Z,21.6
2017-11-07T11:11:05.296Z,21.7
2017-11-07T11:12:07.233Z,21.6
2017-11-07T11:13:08.696Z,21.8
2017-11-07T11:14:10.154Z,21.7
2017-11-07T11:15:11.972Z,21.6
2017-11-07T11:16:13.085Z,21.6
2017-11-07T11:17:14.905Z,21.7
2017-11-07T11:18:16.720Z,21.7
2017-11-07T11:19:18.197Z,21.7
2017-11-07T11:20:20.360Z,21.7
2017-11-07T11:21:21.822Z,21.7
2017-11-07T11:22:23.984Z,21.7
2017-11-07T11:23:25.806Z,21.7
2017-11-07T11:24:27.262Z,21.7
2017-11-07T11:25:29.447Z,21.7
2017-11-07T11:26:30.912Z,21.7
2017-11-07T11:27:32.385Z,21.7
2017-11-07T11:28:34.550Z,21.7
2017-11-07T11:29:36.010Z,21.7
2017-11-07T11:30:37.850Z,21.7
2017-11-07T11:31:38.990Z,21.7
2017-11-07T11:32:40.787Z,21.7
2017-11-07T11:33:42.241Z,21.7
2017-11-07T11:34:44.415Z,21.7
2017-11-07T11:35:45.893Z,21.7
2017-11-07T11:36:47.713Z,21.7
2017-11-07T11:37:49.967Z,21.7
2017-11-07T11:38:51.848Z,21.7
2017-11-07T11:39:53.673Z,21.7
2017-11-07T11:40:55.130Z,21.7
2017-11-07T11:41:57.059Z,21.7
2017-11-07T11:42:58.983Z,21.7
2017-11-07T11:44:00.468Z,21.7
2017-11-07T11:45:02.292Z,21.8
2017-11-07T11:46:04.465Z,21.7
2017-11-07T11:47:06.055Z,21.7
2017-11-07T11:48:07.546Z,21.7
2017-11-07T11:49:09.364Z,21.8
2017-11-07T11:50:11.198Z,21.7
2017-11-07T11:51:12.320Z,21.7
2017-11-07T11:52:14.245Z,21.7
2017-11-07T11:53:15.730Z,21.8
2017-11-07T11:54:17.242Z,21.7
2017-11-07T11:55:19.097Z,21.8
2017-11-07T11:56:21.273Z,21.8
2017-11-07T11:57:22.148Z,21.8
2017-11-07T11:58:24.321Z,21.7
2017-11-07T11:59:25.787Z,21.8
2017-11-07T12:00:27.631Z,21.8
2017-11-07T12:01:28.750Z,21.8
2017-11-07T12:02:29.992Z,21.8
2017-11-07T12:03:31.128Z,21.7
2017-11-07T12:04:32.956Z,21.8
2017-11-07T12:05:34.760Z,21.7
2017-11-07T12:06:35.889Z,21.8
2017-11-07T12:07:38.155Z,21.8
2017-11-07T12:08:40.323Z,21.8
2017-11-07T12:09:41.805Z,21.7
2017-11-07T12:10:43.622Z,21.8
2017-11-07T12:11:45.425Z,21.8
2017-11-07T12:12:47.586Z,21.8
2017-11-07T12:13:49.763Z,21.8
2017-11-07T12:14:51.224Z,21.7
2017-11-07T12:15:52.671Z,21.7
2017-11-07T12:16:54.147Z,21.7
2017-11-07T12:17:56.068Z,21.8
2017-11-07T12:18:57.544Z,21.7
2017-11-07T12:19:59.004Z,21.8
2017-11-07T12:21:00.804Z,21.8
2017-11-07T12:22:02.257Z,21.7
2017-11-07T12:23:03.367Z,21.7
2017-11-07T12:24:04.825Z,21.8
2017-11-07T12:25:06.651Z,21.8
2017-11-07T12:26:08.474Z,21.8
2017-11-07T12:27:09.935Z,21.7
2017-11-07T12:28:11.756Z,21.7
2017-11-07T12:29:13.555Z,21.8
2017-11-07T12:30:15.729Z,21.7
2017-11-07T12:31:17.543Z,21.8
2017-11-07T12:32:18.994Z,21.8
2017-11-07T12:33:20.814Z,21.8
2017-11-07T12:34:22.289Z,21.8
2017-11-07T12:35:24.109Z,21.8
2017-11-07T12:36:25.928Z,21.7
2017-11-07T12:37:27.728Z,21.7
2017-11-07T12:38:28.840Z,21.8
2017-11-07T12:39:30.313Z,21.8
2017-11-07T12:40:32.477Z,21.7
2017-11-07T12:41:34.295Z,21.8
2017-11-07T12:42:36.141Z,21.8
2017-11-07T12:43:37.960Z,21.7
2017-11-07T12:44:39.761Z,21.8
2017-11-07T12:45:40.868Z,21.7
2017-11-07T12:46:42.666Z,21.9
2017-11-07T12:47:44.828Z,21.8
2017-11-07T12:48:46.648Z,21.8
2017-11-07T12:49:48.807Z,21.8
2017-11-07T12:50:50.282Z,21.8
2017-11-07T12:51:52.100Z,21.8
2017-11-07T12:52:53.919Z,21.8
2017-11-07T12:53:56.083Z,21.9
2017-11-07T12:54:57.533Z,21.9
2017-11-07T12:55:59.715Z,21.8
2017-11-07T12:57:01.534Z,21.8
2017-11-07T12:58:03.695Z,21.8
2017-11-07T12:59:05.862Z,21.8
2017-11-07T13:00:08.024Z,21.8
2017-11-07T13:01:09.841Z,21.8
2017-11-07T13:02:11.315Z,21.9
2017-11-07T13:03:12.791Z,21.8
2017-11-07T13:04:14.950Z,21.8
2017-11-07T13:05:16.430Z,21.8
2017-11-07T13:06:18.246Z,21.8
2017-11-07T13:07:19.717Z,21.8
2017-11-07T13:08:20.851Z,21.8
2017-11-07T13:09:23.016Z,21.7
2017-11-07T13:10:24.491Z,21.8
2017-11-07T13:11:26.375Z,21.7
2017-11-07T13:12:28.173Z,21.8
2017-11-07T13:13:29.992Z,21.7
2017-11-07T13:14:31.469Z,21.9
2017-11-07T13:15:33.006Z,21.8
2017-11-07T13:16:34.121Z,21.8
2017-11-07T13:17:35.943Z,21.8
2017-11-07T13:18:37.419Z,21.8
2017-11-07T13:19:39.645Z,21.8
2017-11-07T13:20:41.462Z,21.7
2017-11-07T13:21:42.911Z,21.7
2017-11-07T13:22:44.779Z,21.8
2017-11-07T13:23:46.600Z,21.9
2017-11-07T13:24:48.767Z,21.8
2017-11-07T13:25:50.931Z,21.8
2017-11-07T13:26:52.385Z,21.8
2017-11-07T13:27:53.847Z,21.8
2017-11-07T13:28:55.664Z,21.9
2017-11-07T13:29:57.116Z,21.9
2017-11-07T13:30:58.941Z,21.8
2017-11-07T13:32:01.100Z,21.7
2017-11-07T13:33:02.917Z,21.8
2017-11-07T13:34:04.373Z,21.8
2017-11-07T13:35:06.173Z,21.8
2017-11-07T13:36:07.993Z,21.9
2017-11-07T13:37:09.469Z,21.8
2017-11-07T13:38:11.632Z,21.8
2017-11-07T13:39:13.815Z,21.9
2017-11-07T13:40:15.628Z,21.8
2017-11-07T13:41:17.099Z,21.7
2017-11-07T13:42:19.317Z,21.8
2017-11-07T13:43:21.482Z,21.8
2017-11-07T13:44:23.301Z,21.8